Aviation Digital Data Service (ADDS)

Output produced by METARs form (1042 UTC 17 June 2019)
found at http://www.aviationweather.gov/metar/data/
 
Forecast for: EDDR (SAARBRUECKEN , DE)
Text: TAF EDDR 170500Z 1706/1806 07006KT CAVOK
Forecast period: 0600 to 1900 UTC 17 June 2019
Forecast type: FROM: standard forecast or significant change
Winds: from the ENE (70 degrees) at 7 MPH (6 knots; 3.1 m/s)
Visibility: 6 or more miles 10+ km)
Ceiling: unknown
Clouds: missing
Weather: NSW  (no significant weather)
Text: BECMG 1719/1721 VRB03KT
Forecast period: 1900 UTC 17 June 2019 to 0600 UTC 18 June 2019
Forecast type: BECOMING: Conditions expected to become as follows by 2100 UTC 17 June 2019
Winds: variable direction winds at 3 MPH (3 knots; 1.5 m/s)
Visibility: 6 or more miles 10+ km)
Ceiling: unknown
Clouds: missing
Weather: NSW  (no significant weather)